Time;durP1;ratioP1;P1;durP2;ratioP2;P2;SDS_P1;SDS_P2;PMS_P1;PMS_P2;Temp;Humidity;BMP_temperature;BMP_pressure;BME280_temperature;BME280_humidity;BME280_pressure;Samples;Min_cycle;Max_cycle;Signal;HPM_P1;HPM_P2
2021/12/16 00:03:03;;;;;;;16.23;7.15;;;;;;;7.44;89.60;101723.78;5067997;28;20801;-56
2021/12/16 00:05:50;;;;;;;12.57;6.75;;;;;;;7.43;89.53;101706.56;5073599;28;20058;-56
2021/12/16 00:08:22;;;;;;;11.30;6.35;;;;;;;7.43;89.65;101707.44;5072774;28;20129;-57
2021/12/16 00:10:56;;;;;;;12.88;6.80;;;;;;;7.44;89.23;101700.56;5071800;28;20101;-56
2021/12/16 00:30:13;;;;;;;10.07;6.10;;;;;;;7.46;89.27;101692.03;5078280;28;20054;-56
2021/12/16 00:32:48;;;;;;;11.55;6.30;;;;;;;7.45;89.37;101700.59;5067528;28;20099;-56
2021/12/16 00:35:17;;;;;;;9.83;6.03;;;;;;;7.47;89.63;101687.75;5066986;28;20047;-56
2021/12/16 00:37:44;;;;;;;12.73;6.97;;;;;;;7.48;89.91;101705.81;5068255;28;20282;-55
2021/12/16 00:40:13;;;;;;;10.10;5.72;;;;;;;7.49;89.41;101712.72;5066811;28;20056;-55
2021/12/16 00:42:49;;;;;;;13.18;6.22;;;;;;;7.52;89.85;101702.47;5068062;28;20044;-56
2021/12/16 00:45:35;;;;;;;10.48;5.75;;;;;;;7.48;90.36;101703.25;5066187;28;20068;-56
2021/12/16 00:48:09;;;;;;;11.32;5.93;;;;;;;7.46;90.25;101709.22;5070977;28;20084;-55
2021/12/16 00:56:10;;;;;;;11.95;6.50;;;;;;;7.46;90.58;101709.22;5068013;28;20140;-56
2021/12/16 00:58:44;;;;;;;11.32;6.65;;;;;;;7.47;90.19;101703.22;5068083;28;20370;-56
2021/12/16 01:01:27;;;;;;;9.77;6.03;;;;;;;7.47;89.83;101701.50;5068045;28;20055;-56
2021/12/16 01:04:13;;;;;;;12.57;6.35;;;;;;;7.47;90.46;101683.44;5070505;28;20127;-55
2021/12/16 01:07:01;;;;;;;11.35;6.32;;;;;;;7.48;89.98;101710.97;5073224;28;20051;-54
2021/12/16 01:10:12;;;;;;;12.30;6.45;;;;;;;7.46;90.64;101698.91;5069454;28;20170;-56
2021/12/16 01:34:57;;;;;;;13.20;7.38;;;;;;;7.44;90.79;101734.97;5070927;28;20186;-57
2021/12/16 01:40:20;;;;;;;14.50;7.05;;;;;;;7.45;90.97;101728.13;5075481;28;20138;-57
2021/12/16 01:46:09;;;;;;;11.98;7.07;;;;;;;7.45;90.69;101726.41;5086630;28;20076;-56
2021/12/16 01:51:39;;;;;;;13.18;8.10;;;;;;;7.43;91.00;101722.94;5077793;28;20036;-56
2021/12/16 01:57:06;;;;;;;13.63;7.47;;;;;;;7.40;91.22;101728.03;5076750;28;19928;-55
2021/12/16 01:59:37;;;;;;;13.90;7.07;;;;;;;7.40;90.97;101728.03;5073157;28;20059;-55
2021/12/16 02:02:14;;;;;;;13.90;8.50;;;;;;;7.41;91.77;101728.91;5075428;28;20050;-56
2021/12/16 02:05:06;;;;;;;14.65;7.47;;;;;;;7.39;91.32;101713.38;5072339;28;20048;-56
2021/12/16 02:07:49;;;;;;;16.00;8.50;;;;;;;7.41;91.24;101723.72;5071758;28;20049;-55
2021/12/16 02:10:21;;;;;;;10.85;7.25;;;;;;;7.36;91.25;101715.91;5072529;28;20055;-55
2021/12/16 02:12:57;;;;;;;13.25;6.97;;;;;;;7.37;91.55;101722.81;5074777;28;20129;-56
2021/12/16 02:29:19;;;;;;;10.13;6.07;;;;;;;7.38;91.26;101750.34;5073783;28;20592;-57
2021/12/16 02:31:54;;;;;;;12.02;6.55;;;;;;;7.39;91.16;101744.34;5069543;28;20060;-56
2021/12/16 02:34:29;;;;;;;13.23;6.50;;;;;;;7.39;91.40;101741.75;5071615;28;20047;-54
2021/12/16 02:36:58;;;;;;;12.35;6.95;;;;;;;7.39;90.96;101746.91;5072432;28;21001;-57
2021/12/16 02:39:28;;;;;;;13.05;6.97;;;;;;;7.39;91.60;101741.75;5078588;28;20051;-57
2021/12/16 02:41:59;;;;;;;12.80;7.97;;;;;;;7.38;91.29;101747.75;5070820;28;20056;-56
2021/12/16 02:44:37;;;;;;;12.77;7.07;;;;;;;7.39;91.62;101752.09;5072898;28;20124;-57
2021/12/16 02:49:52;;;;;;;15.32;8.38;;;;;;;7.37;91.04;101764.06;5079042;28;20078;-55
2021/12/16 02:52:24;;;;;;;13.77;8.30;;;;;;;7.35;91.73;101755.44;5080268;28;20051;-54
2021/12/16 02:54:51;;;;;;;14.25;8.35;;;;;;;7.33;91.39;101754.53;5083709;28;20040;-54
2021/12/16 02:57:20;;;;;;;14.27;8.13;;;;;;;7.33;91.48;101751.09;5077161;28;20053;-56
2021/12/16 02:59:49;;;;;;;12.38;7.63;;;;;;;7.28;91.31;101751.84;5071617;28;20060;-56
2021/12/16 03:02:18;;;;;;;11.93;6.85;;;;;;;7.27;92.22;101742.34;5071731;28;21732;-57
2021/12/16 03:04:48;;;;;;;10.98;6.75;;;;;;;7.24;91.82;101731.09;5070637;28;20059;-56
2021/12/16 03:07:16;;;;;;;11.77;6.55;;;;;;;7.19;91.95;101732.72;5076196;28;20047;-55
2021/12/16 03:12:53;;;;;;;11.77;6.15;;;;;;;7.16;92.06;101727.50;5060853;28;20083;-55
2021/12/16 03:15:33;;;;;;;10.65;5.53;;;;;;;7.15;92.33;101730.91;5071881;28;20481;-55
2021/12/16 03:18:08;;;;;;;9.75;4.60;;;;;;;7.18;92.18;101730.97;5080677;28;20538;-55
2021/12/16 03:20:41;;;;;;;8.50;5.13;;;;;;;7.20;92.64;101729.28;5078856;28;20044;-56
2021/12/16 03:23:25;;;;;;;7.10;4.90;;;;;;;7.22;92.06;101725.91;5076142;28;20124;-57
2021/12/16 03:26:10;;;;;;;7.80;4.95;;;;;;;7.24;92.37;101718.19;5082741;28;20048;-56
2021/12/16 03:29:09;;;;;;;7.03;4.82;;;;;;;7.20;92.13;101713.81;5084765;28;20114;-56
2021/12/16 03:34:37;;;;;;;7.70;4.25;;;;;;;7.19;92.60;101717.25;5051284;28;20151;-56
2021/12/16 03:37:19;;;;;;;8.23;4.55;;;;;;;7.18;92.46;101713.78;5072318;28;20053;-56
2021/12/16 03:39:51;;;;;;;7.30;4.53;;;;;;;7.17;92.35;101713.75;5076357;28;20048;-55
2021/12/16 03:42:23;;;;;;;6.75;4.25;;;;;;;7.18;92.58;101721.53;5073244;28;20406;-55
2021/12/16 03:44:56;;;;;;;7.25;4.43;;;;;;;7.18;92.06;101720.66;5070317;28;20055;-55
2021/12/16 03:47:36;;;;;;;7.50;4.50;;;;;;;7.19;92.59;101719.81;5070396;28;20048;-56
2021/12/16 03:50:08;;;;;;;7.38;4.50;;;;;;;7.19;92.14;101735.28;5074178;28;20059;-57
2021/12/16 03:52:36;;;;;;;8.65;4.72;;;;;;;7.20;92.58;101729.28;5071995;28;20052;-55
2021/12/16 03:55:05;;;;;;;7.38;4.38;;;;;;;7.19;92.22;101731.00;5077493;28;20044;-56
2021/12/16 03:57:34;;;;;;;7.63;4.80;;;;;;;7.19;92.28;101732.72;5078798;28;20052;-56
2021/12/16 04:00:02;;;;;;;8.43;4.85;;;;;;;7.20;92.07;101744.75;5077429;28;20052;-55
2021/12/16 04:02:33;;;;;;;7.45;4.50;;;;;;;7.20;91.79;101739.59;5071900;28;20056;-56
2021/12/16 04:05:01;;;;;;;8.52;4.70;;;;;;;7.18;92.20;101736.13;5069448;28;20090;-56
2021/12/16 04:07:32;;;;;;;8.13;4.95;;;;;;;7.17;92.33;101740.41;5069658;28;20465;-56
2021/12/16 04:10:00;;;;;;;8.20;4.70;;;;;;;7.18;92.44;101756.75;5074936;28;20052;-56
2021/12/16 04:12:28;;;;;;;7.93;3.72;;;;;;;7.18;92.88;101761.91;5070505;28;20049;-56
2021/12/16 04:15:00;;;;;;;9.38;5.38;;;;;;;7.13;93.04;101758.38;5072509;28;20428;-55
2021/12/16 04:17:32;;;;;;;6.80;4.22;;;;;;;7.16;92.62;101753.28;5070477;28;20049;-56
2021/12/16 04:20:01;;;;;;;6.03;3.92;;;;;;;7.16;93.27;101763.59;5071815;28;20063;-54
2021/12/16 04:22:35;;;;;;;7.40;4.00;;;;;;;7.15;93.24;101761.84;5082189;28;20048;-56
2021/12/16 04:25:09;;;;;;;7.45;3.80;;;;;;;7.13;92.95;101763.53;5075759;28;21998;-55
2021/12/16 04:27:37;;;;;;;8.65;3.88;;;;;;;7.12;93.26;101762.66;5078617;28;20067;-57
2021/12/16 04:30:09;;;;;;;5.82;3.53;;;;;;;7.12;93.23;101767.81;5072420;28;20150;-55
2021/12/16 04:32:37;;;;;;;6.60;3.88;;;;;;;7.13;93.36;101768.69;5074675;28;20870;-56
2021/12/16 04:35:06;;;;;;;7.68;3.65;;;;;;;7.12;93.36;101767.81;5082010;28;20044;-56
2021/12/16 04:37:33;;;;;;;6.60;3.03;;;;;;;7.15;93.46;101756.69;5069657;28;20354;-57
2021/12/16 04:40:02;;;;;;;5.53;2.80;;;;;;;7.14;93.17;101760.09;5069871;28;20142;-58
2021/12/16 04:42:30;;;;;;;4.43;2.70;;;;;;;7.15;93.15;101761.84;5070438;28;20143;-55
2021/12/16 04:44:57;;;;;;;5.53;2.80;;;;;;;7.13;93.23;101758.38;5076289;28;20520;-56
2021/12/16 04:47:29;;;;;;;5.15;3.00;;;;;;;7.13;92.92;101760.94;5070601;28;20048;-55
2021/12/16 04:49:56;;;;;;;3.70;2.50;;;;;;;7.13;92.77;101753.22;5070520;28;20044;-58
2021/12/16 04:52:23;;;;;;;5.40;2.63;;;;;;;7.11;93.06;101752.31;5072738;28;20059;-56
2021/12/16 04:54:50;;;;;;;4.15;2.60;;;;;;;7.11;93.05;101749.72;5078100;28;20044;-56
2021/12/16 04:57:18;;;;;;;4.07;2.50;;;;;;;7.10;93.35;101745.41;5076595;28;20052;-57
2021/12/16 04:59:45;;;;;;;5.07;2.67;;;;;;;7.10;92.90;101753.16;5073665;28;20051;-57
2021/12/16 05:02:19;;;;;;;3.55;2.20;;;;;;;7.10;93.05;101758.31;5073476;28;20056;-54
2021/12/16 05:04:48;;;;;;;4.65;2.17;;;;;;;7.10;93.05;101763.47;5073954;28;20044;-57
2021/12/16 05:07:16;;;;;;;4.57;2.28;;;;;;;7.12;92.85;101767.81;5075631;28;20055;-56
2021/12/16 05:10:06;;;;;;;5.30;2.30;;;;;;;7.12;93.33;101762.66;5076593;28;20056;-56
2021/12/16 05:12:37;;;;;;;4.60;2.00;;;;;;;7.15;92.44;101767.00;5071329;28;20044;-56
2021/12/16 05:15:08;;;;;;;3.53;2.05;;;;;;;7.17;92.54;101758.47;5076500;28;20051;-56
2021/12/16 05:17:41;;;;;;;4.15;2.30;;;;;;;7.19;92.09;101766.22;5073092;28;20139;-56
2021/12/16 05:20:12;;;;;;;3.72;1.70;;;;;;;7.18;92.32;101747.31;5072564;28;20093;-57
2021/12/16 05:25:35;;;;;;;4.05;1.85;;;;;;;7.18;92.08;101713.78;5077521;28;20143;-57
2021/12/16 05:28:05;;;;;;;3.20;1.95;;;;;;;7.18;92.35;101736.13;5086594;28;20097;-57
2021/12/16 05:30:32;;;;;;;4.50;2.20;;;;;;;7.16;92.37;101728.34;5082203;28;20132;-57
2021/12/16 05:32:59;;;;;;;4.20;1.90;;;;;;;7.18;92.36;101731.84;5075794;28;20059;-57
2021/12/16 05:35:30;;;;;;;2.50;1.58;;;;;;;7.18;92.42;101731.84;5072577;28;20048;-57
2021/12/16 05:37:57;;;;;;;3.33;1.90;;;;;;;7.20;92.04;101749.91;5072254;28;20053;-58
2021/12/16 05:40:29;;;;;;;3.20;2.10;;;;;;;7.22;91.85;101758.56;5084324;28;20062;-56
2021/12/16 05:42:58;;;;;;;5.15;2.20;;;;;;;7.19;92.01;101763.66;5077920;28;20048;-57
2021/12/16 05:45:27;;;;;;;5.38;2.72;;;;;;;7.17;92.09;101767.91;5073495;28;20066;-58
2021/12/16 05:47:55;;;;;;;4.57;3.03;;;;;;;7.17;91.66;101780.81;5071392;28;20056;-56
2021/12/16 05:50:23;;;;;;;5.20;2.97;;;;;;;7.13;92.05;101792.75;5066499;28;20539;-57
2021/12/16 05:52:51;;;;;;;7.50;3.35;;;;;;;7.13;92.23;101804.78;5073848;28;20048;-57
2021/12/16 05:55:20;;;;;;;6.90;4.10;;;;;;;7.14;92.82;101802.22;5071951;28;20047;-54
2021/12/16 05:57:49;;;;;;;5.15;3.30;;;;;;;7.16;92.32;101810.88;5079240;28;20048;-57
2021/12/16 06:00:21;;;;;;;7.78;4.30;;;;;;;7.17;92.25;101806.59;5079111;28;20085;-56
2021/12/16 06:02:48;;;;;;;8.82;4.85;;;;;;;7.18;92.39;101814.34;5073954;28;20052;-57
2021/12/16 06:05:16;;;;;;;12.05;5.03;;;;;;;7.20;92.46;101816.97;5075174;28;20130;-54
2021/12/16 06:07:43;;;;;;;9.05;4.75;;;;;;;7.22;92.36;101820.44;5071624;28;20059;-57
2021/12/16 06:10:38;;;;;;;10.43;5.38;;;;;;;7.18;92.52;101805.75;5069962;28;20147;-57
2021/12/16 06:13:00;;;;;;;11.68;5.05;;;;;;;7.17;92.53;101827.22;5071479;28;20516;-57
2021/12/16 06:15:42;;;;;;;8.57;4.72;;;;;;;7.16;92.49;101821.19;5072955;28;20046;-56
2021/12/16 06:26:31;;;;;;;5.65;3.35;;;;;;;7.10;93.01;101818.47;5078832;28;20133;-57
2021/12/16 06:28:58;;;;;;;6.35;2.97;;;;;;;7.11;93.48;101829.66;5069023;28;20063;-56
2021/12/16 06:31:26;;;;;;;9.43;3.47;;;;;;;7.12;93.01;101828.81;5076214;27;20052;-57
2021/12/16 06:33:53;;;;;;;10.02;3.53;;;;;;;7.12;93.24;101834.84;5068883;28;20055;-57
2021/12/16 06:36:20;;;;;;;6.32;2.50;;;;;;;7.11;92.80;101835.69;5066512;28;20523;-56
2021/12/16 06:38:48;;;;;;;5.50;2.60;;;;;;;7.12;92.66;101839.13;5067739;28;20048;-56
2021/12/16 06:41:16;;;;;;;8.43;2.60;;;;;;;7.12;92.70;101845.16;5068874;28;20054;-57
2021/12/16 06:43:46;;;;;;;4.75;1.90;;;;;;;7.12;92.54;101844.28;5066265;28;20048;-56
2021/12/16 06:46:17;;;;;;;3.00;1.70;;;;;;;7.11;92.56;101863.19;5062973;28;20054;-57
2021/12/16 06:48:49;;;;;;;7.05;2.10;;;;;;;7.09;92.34;101868.31;5066228;28;20059;-57
2021/12/16 06:51:21;;;;;;;6.72;2.22;;;;;;;7.10;92.24;101869.16;5077423;28;20074;-58
2021/12/16 06:53:52;;;;;;;10.07;1.80;;;;;;;7.09;92.20;101877.75;5066967;28;20075;-57
2021/12/16 06:56:25;;;;;;;3.30;1.73;;;;;;;7.11;91.80;101868.34;5066788;28;20052;-56
2021/12/16 06:59:05;;;;;;;6.38;2.22;;;;;;;7.12;91.89;101875.22;5066382;28;20052;-56
2021/12/16 07:01:38;;;;;;;9.70;2.45;;;;;;;7.10;91.60;101874.31;5066977;28;20113;-57
2021/12/16 07:04:08;;;;;;;10.82;2.53;;;;;;;7.08;91.09;101888.88;5064921;28;20122;-55
2021/12/16 07:06:38;;;;;;;11.80;2.20;;;;;;;7.07;91.11;101885.44;5067979;28;20733;-59
2021/12/16 07:09:13;;;;;;;10.38;2.58;;;;;;;7.06;90.87;101900.88;5067558;28;20067;-51
2021/12/16 07:11:41;;;;;;;7.60;2.40;;;;;;;7.05;90.75;101888.81;5069849;28;20102;-59
2021/12/16 07:14:14;;;;;;;8.57;1.83;;;;;;;7.07;90.77;101912.94;5067691;28;20090;-58
2021/12/16 07:16:42;;;;;;;5.82;1.83;;;;;;;7.05;90.67;101904.28;5061051;28;20050;-59
2021/12/16 07:19:10;;;;;;;7.18;2.17;;;;;;;7.06;89.84;101904.31;5067534;28;20124;-54
2021/12/16 07:21:38;;;;;;;4.65;1.50;;;;;;;7.07;89.65;101910.34;5064704;28;20824;-57
2021/12/16 07:24:07;;;;;;;6.28;1.50;;;;;;;7.08;89.65;101900.06;5064424;28;20220;-60
2021/12/16 07:26:34;;;;;;;3.78;1.60;;;;;;;7.07;89.65;101892.31;5063776;28;20222;-59
2021/12/16 07:29:03;;;;;;;4.22;1.67;;;;;;;7.07;89.52;101900.03;5066071;28;20907;-50
2021/12/16 07:31:33;;;;;;;11.88;2.65;;;;;;;7.05;89.06;101893.97;5068823;28;20534;-57
2021/12/16 07:34:01;;;;;;;7.03;1.90;;;;;;;7.04;88.63;101892.22;5066797;28;20055;-55
2021/12/16 07:36:30;;;;;;;7.05;2.03;;;;;;;7.02;88.28;101901.63;5071148;28;21751;-52
2021/12/16 07:38:58;;;;;;;6.82;1.80;;;;;;;7.01;88.79;101898.19;5066818;28;20267;-54
2021/12/16 07:41:31;;;;;;;16.67;2.80;;;;;;;6.99;88.48;101893.81;5074498;28;20077;-58
2021/12/16 07:44:09;;;;;;;13.55;3.00;;;;;;;6.95;87.99;101898.91;5065034;28;20043;-51
2021/12/16 07:46:38;;;;;;;7.15;2.05;;;;;;;6.96;87.74;101900.66;5078322;28;20407;-54
2021/12/16 07:49:07;;;;;;;11.50;3.10;;;;;;;6.98;87.99;101890.38;5067782;28;20064;-50
2021/12/16 07:51:34;;;;;;;5.55;2.00;;;;;;;6.97;87.67;101902.41;5067860;28;20054;-51
2021/12/16 07:54:02;;;;;;;14.43;2.60;;;;;;;6.96;87.41;101900.66;5072482;28;20527;-48
2021/12/16 07:56:30;;;;;;;9.85;1.90;;;;;;;6.97;87.01;101907.56;5069844;28;20052;-51
2021/12/16 07:58:57;;;;;;;8.65;2.38;;;;;;;6.95;86.83;101904.06;5066716;28;20204;-58
2021/12/16 08:01:26;;;;;;;4.07;2.13;;;;;;;6.96;86.87;101894.63;5062858;28;20465;-57
2021/12/16 08:03:55;;;;;;;7.35;2.30;;;;;;;6.95;87.01;101888.59;5060535;28;20142;-59
2021/12/16 08:06:25;;;;;;;8.88;1.92;;;;;;;6.97;86.89;101884.34;5067451;28;20040;-56
2021/12/16 08:08:55;;;;;;;8.48;2.17;;;;;;;6.94;86.74;101892.00;5069090;28;20569;-54
2021/12/16 08:11:23;;;;;;;5.93;1.63;;;;;;;6.93;86.77;101874.81;5070302;28;20054;-54
2021/12/16 08:13:50;;;;;;;5.13;2.05;;;;;;;6.91;86.35;101881.63;5067813;28;20047;-54
2021/12/16 08:16:22;;;;;;;10.90;2.05;;;;;;;6.87;86.41;101884.97;5082505;28;20108;-57
2021/12/16 08:18:49;;;;;;;8.35;2.35;;;;;;;6.86;87.24;101890.94;5062789;28;20052;-59
2021/12/16 08:21:18;;;;;;;20.58;4.47;;;;;;;6.83;86.52;101893.44;5068032;28;20056;-59
2021/12/16 08:23:45;;;;;;;10.60;3.60;;;;;;;6.80;86.98;101898.53;5065196;28;21883;-59
2021/12/16 08:26:15;;;;;;;12.73;3.25;;;;;;;6.79;86.47;101891.63;5082626;28;20515;-52
2021/12/16 08:28:43;;;;;;;6.15;2.28;;;;;;;6.74;86.98;101882.88;5088326;28;20484;-60
2021/12/16 08:31:11;;;;;;;8.32;2.30;;;;;;;6.72;86.74;101887.13;5020280;28;65899;-54
2021/12/16 08:33:39;;;;;;;36.47;5.85;;;;;;;6.71;86.91;101881.94;4995124;28;20057;-62
2021/12/16 08:36:07;;;;;;;9.52;2.30;;;;;;;6.68;86.64;101887.88;4988985;28;20502;-60
2021/12/16 08:38:37;;;;;;;11.18;2.40;;;;;;;6.67;86.59;101901.59;4994278;28;20050;-62
2021/12/16 08:41:08;;;;;;;11.48;2.80;;;;;;;6.66;87.24;101899.84;4989722;28;20057;-56
2021/12/16 08:43:35;;;;;;;10.07;3.25;;;;;;;6.69;87.01;101914.50;4984496;28;20442;-55
2021/12/16 08:46:04;;;;;;;13.15;3.60;;;;;;;6.70;87.42;101914.56;4984776;28;20482;-57
2021/12/16 08:48:31;;;;;;;7.50;2.20;;;;;;;6.74;86.77;101918.97;4986272;28;20050;-55
2021/12/16 08:50:58;;;;;;;8.88;2.55;;;;;;;6.78;86.91;101915.66;4983412;28;20066;-56
2021/12/16 08:53:26;;;;;;;5.45;2.35;;;;;;;6.82;86.63;101912.31;4990001;28;20073;-52
2021/12/16 08:55:56;;;;;;;9.52;3.28;;;;;;;6.89;86.53;101914.22;4980894;28;20058;-52
2021/12/16 08:58:25;;;;;;;7.72;2.30;;;;;;;6.99;86.46;101925.63;4988159;28;20372;-46
2021/12/16 09:00:57;;;;;;;13.25;2.42;;;;;;;7.08;85.87;101920.69;4995053;28;20050;-50
2021/12/16 09:03:25;;;;;;;6.18;2.08;;;;;;;7.18;85.19;101922.66;4994897;28;20093;-49
2021/12/16 09:05:52;;;;;;;6.30;2.40;;;;;;;7.29;85.50;101925.53;5002688;28;20085;-51
2021/12/16 09:08:19;;;;;;;6.43;1.92;;;;;;;7.38;84.79;101928.31;4996556;28;20096;-60
2021/12/16 09:10:47;;;;;;;8.68;2.35;;;;;;;7.45;83.52;101922.47;4987022;28;20104;-61
2021/12/16 09:13:17;;;;;;;12.50;2.22;;;;;;;7.49;82.90;101931.16;4986091;28;20108;-58
2021/12/16 09:15:47;;;;;;;8.55;2.05;;;;;;;7.54;82.92;101927.84;4989984;28;20046;-58
2021/12/16 09:18:16;;;;;;;12.63;2.20;;;;;;;7.54;81.89;101938.16;4986316;28;20049;-58
2021/12/16 09:20:44;;;;;;;9.93;2.70;;;;;;;7.52;82.16;101926.94;4991366;28;20475;-61
2021/12/16 09:23:12;;;;;;;13.45;2.42;;;;;;;7.46;81.69;101921.63;4997636;28;20050;-61
2021/12/16 09:25:42;;;;;;;6.70;1.85;;;;;;;7.41;81.75;101915.50;4988878;28;20050;-55
2021/12/16 09:28:09;;;;;;;9.65;2.60;;;;;;;7.35;81.90;101920.53;4996623;28;20406;-60
2021/12/16 09:30:38;;;;;;;8.68;2.10;;;;;;;7.26;82.17;101928.00;4990522;28;20050;-54
2021/12/16 09:33:13;;;;;;;6.22;2.13;;;;;;;7.26;81.93;101930.59;4998648;28;20483;-57
2021/12/16 09:35:40;;;;;;;7.77;1.90;;;;;;;7.27;82.18;101932.34;4989740;28;20053;-53
2021/12/16 09:38:10;;;;;;;9.05;2.13;;;;;;;7.27;82.16;101943.53;4993964;28;20112;-58
2021/12/16 09:40:46;;;;;;;4.95;2.00;;;;;;;7.26;82.33;101941.78;4992895;28;20152;-57
2021/12/16 09:43:14;;;;;;;6.78;2.03;;;;;;;7.26;81.83;101935.75;4996594;28;20057;-57
2021/12/16 09:45:42;;;;;;;11.30;2.63;;;;;;;7.25;81.65;101939.16;4999243;28;20049;-57
2021/12/16 09:48:10;;;;;;;10.68;1.92;;;;;;;7.21;82.03;101933.06;5009817;28;20573;-51
2021/12/16 09:50:37;;;;;;;5.57;2.00;;;;;;;7.18;81.40;101924.38;5004243;28;20079;-57
2021/12/16 09:53:05;;;;;;;10.75;2.17;;;;;;;7.18;81.98;101912.34;4990682;28;20068;-54
2021/12/16 09:55:34;;;;;;;5.18;1.60;;;;;;;7.24;81.93;101919.38;4989423;28;20049;-57
2021/12/16 09:58:03;;;;;;;8.70;2.38;;;;;;;7.30;80.95;101916.97;4989991;28;20054;-60
2021/12/16 10:00:42;;;;;;;7.60;2.28;;;;;;;7.36;80.74;101919.69;4991225;28;20050;-61
2021/12/16 10:03:11;;;;;;;5.20;1.65;;;;;;;7.43;80.89;101913.81;4997174;28;20068;-56
2021/12/16 10:05:39;;;;;;;11.20;2.33;;;;;;;7.48;80.67;101925.13;4993640;28;20790;-58
2021/12/16 10:08:09;;;;;;;8.25;1.80;;;;;;;7.55;79.85;101929.59;4999873;28;20065;-59
2021/12/16 10:10:37;;;;;;;7.15;2.15;;;;;;;7.58;79.40;101906.44;5003834;28;20120;-58
2021/12/16 10:13:06;;;;;;;7.90;2.10;;;;;;;7.62;79.58;101909.06;5000448;28;20061;-59
2021/12/16 10:18:23;;;;;;;9.40;2.60;;;;;;;7.71;78.66;101914.44;4999257;28;20068;-55
2021/12/16 10:20:54;;;;;;;10.10;2.95;;;;;;;7.79;79.55;101900.84;5002031;28;20046;-57
2021/12/16 10:23:24;;;;;;;8.35;1.80;;;;;;;7.84;77.71;101907.03;5006247;28;20050;-54
2021/12/16 10:25:54;;;;;;;7.70;2.10;;;;;;;7.89;77.35;101909.69;4996057;28;20054;-59
2021/12/16 10:28:23;;;;;;;7.85;1.70;;;;;;;7.86;77.02;101914.81;4990570;28;20057;-60
2021/12/16 10:30:55;;;;;;;6.53;1.80;;;;;;;7.81;76.82;101913.84;4997061;28;20512;-60
2021/12/16 10:33:31;;;;;;;10.05;1.92;;;;;;;7.76;77.14;101905.09;5000459;28;20112;-59
2021/12/16 10:36:09;;;;;;;6.78;1.48;;;;;;;7.73;77.13;101923.09;5007768;28;20087;-59
2021/12/16 10:38:39;;;;;;;5.28;1.98;;;;;;;7.68;77.46;101922.13;5007885;28;21170;-61
2021/12/16 10:41:09;;;;;;;7.97;2.25;;;;;;;7.65;77.76;101924.63;5009428;28;20054;-57
2021/12/16 10:43:40;;;;;;;10.55;2.65;;;;;;;7.59;78.01;101921.06;4996149;28;20053;-58
2021/12/16 10:46:10;;;;;;;8.65;1.77;;;;;;;7.57;78.14;101901.22;4991368;28;20112;-59
2021/12/16 10:48:41;;;;;;;8.90;1.80;;;;;;;7.52;78.29;101906.28;5002519;28;20541;-58
2021/12/16 10:51:13;;;;;;;5.93;1.70;;;;;;;7.48;78.05;101912.22;4994810;28;20722;-58
2021/12/16 10:53:49;;;;;;;10.25;2.15;;;;;;;7.48;78.14;101914.81;4992802;28;20100;-56
2021/12/16 10:56:19;;;;;;;13.32;2.90;;;;;;;7.47;78.53;101907.03;5006786;28;20418;-59
2021/12/16 10:58:52;;;;;;;10.27;2.00;;;;;;;7.49;78.68;101913.97;5003051;28;20101;-59
2021/12/16 11:01:52;;;;;;;7.70;2.38;;;;;;;7.55;78.77;101903.78;5001991;28;20068;-53
2021/12/16 11:04:25;;;;;;;9.35;2.45;;;;;;;7.58;78.27;101910.72;4992024;28;20077;-53
2021/12/16 11:06:55;;;;;;;6.80;1.73;;;;;;;7.62;79.04;101894.47;5005942;28;20041;-61
2021/12/16 11:09:27;;;;;;;10.55;2.20;;;;;;;7.69;78.57;101890.31;5009584;28;20050;-60
2021/12/16 11:12:11;;;;;;;7.40;1.77;;;;;;;7.82;77.87;101897.50;5009678;28;20049;-60
2021/12/16 11:14:40;;;;;;;13.20;2.47;;;;;;;7.94;77.32;101886.56;5005139;28;20751;-60
2021/12/16 11:17:12;;;;;;;10.23;2.33;;;;;;;7.98;76.77;101898.69;4991602;28;20050;-60
2021/12/16 11:19:43;;;;;;;7.95;2.00;;;;;;;7.95;76.24;101889.16;4989399;28;20108;-59
2021/12/16 11:22:13;;;;;;;8.68;2.58;;;;;;;7.99;76.50;101896.13;4983378;28;20050;-59
2021/12/16 11:24:40;;;;;;;11.55;2.40;;;;;;;8.05;76.05;101893.69;4987524;28;20064;-60
2021/12/16 11:27:29;;;;;;;10.77;2.50;;;;;;;8.05;76.31;101896.25;4981774;28;20053;-59
2021/12/16 11:29:58;;;;;;;7.38;2.35;;;;;;;8.08;75.79;101916.13;4985834;28;20056;-62
2021/12/16 11:32:42;;;;;;;7.82;2.08;;;;;;;8.04;74.84;101924.63;4985041;28;20057;-61
2021/12/16 11:35:39;;;;;;;8.27;1.75;;;;;;;8.00;75.03;101940.91;4986350;28;20107;-53
2021/12/16 11:38:18;;;;;;;10.10;2.22;;;;;;;7.97;75.98;101953.75;4987971;28;20058;-53
2021/12/16 11:41:04;;;;;;;11.95;2.30;;;;;;;7.94;74.98;101958.84;4987484;28;20788;-57
2021/12/16 11:43:46;;;;;;;7.95;2.00;;;;;;;7.94;75.62;101944.22;4987323;28;20045;-54
2021/12/16 11:46:20;;;;;;;8.73;2.22;;;;;;;7.91;75.64;101957.06;4988402;28;20100;-54
2021/12/16 11:48:49;;;;;;;12.07;2.67;;;;;;;7.91;75.34;101954.50;4990569;28;20046;-56
2021/12/16 11:51:20;;;;;;;9.00;2.53;;;;;;;7.82;75.79;101960.34;4987878;28;20104;-55
2021/12/16 11:53:52;;;;;;;10.43;2.50;;;;;;;7.75;76.25;101960.13;4981840;28;20174;-53
2021/12/16 11:56:21;;;;;;;12.68;2.60;;;;;;;7.67;76.29;101966.81;4997749;28;20049;-51
2021/12/16 11:58:49;;;;;;;9.82;2.35;;;;;;;7.60;76.73;101984.75;4998824;28;20493;-52
2021/12/16 12:01:22;;;;;;;12.23;3.03;;;;;;;7.52;75.98;101975.09;4984915;28;20070;-58
2021/12/16 12:03:50;;;;;;;9.90;1.95;;;;;;;7.43;76.35;101972.28;4978868;28;20050;-46
2021/12/16 12:06:30;;;;;;;10.18;2.25;;;;;;;7.36;76.76;101960.97;4983739;28;20054;-48
2021/12/16 12:08:59;;;;;;;10.75;3.00;;;;;;;7.28;76.67;101965.03;4988497;28;20068;-59
2021/12/16 12:11:29;;;;;;;15.38;3.05;;;;;;;7.24;77.50;101958.06;4984259;28;20058;-50
2021/12/16 12:14:00;;;;;;;13.60;3.65;;;;;;;7.24;77.17;101963.22;4987023;28;20050;-51
2021/12/16 12:16:34;;;;;;;14.18;3.05;;;;;;;7.28;77.27;101949.56;4985014;28;20053;-58
2021/12/16 12:19:09;;;;;;;14.38;3.28;;;;;;;7.32;76.94;101935.06;4983724;28;21038;-56
2021/12/16 12:21:41;;;;;;;11.73;2.53;;;;;;;7.36;76.54;101922.25;4984196;28;20049;-53
2021/12/16 12:24:12;;;;;;;11.15;2.85;;;;;;;7.38;77.40;101928.31;4982489;28;20087;-58
2021/12/16 12:26:43;;;;;;;31.67;5.28;;;;;;;7.41;77.03;101936.13;4982157;28;20046;-60
2021/12/16 12:29:12;;;;;;;16.00;3.75;;;;;;;7.43;76.10;101934.47;4982096;28;20045;-60
2021/12/16 12:31:44;;;;;;;17.77;3.67;;;;;;;7.44;76.52;101933.63;4980412;28;20653;-59
2021/12/16 12:34:13;;;;;;;15.38;3.53;;;;;;;7.45;76.70;101942.25;4980808;28;20492;-58
2021/12/16 12:36:42;;;;;;;25.58;4.57;;;;;;;7.45;76.61;101944.81;4986884;28;20062;-59
2021/12/16 12:39:15;;;;;;;21.05;3.50;;;;;;;7.45;76.13;101943.13;4987702;28;20057;-56
2021/12/16 12:41:43;;;;;;;14.70;3.55;;;;;;;7.45;76.29;101948.28;4988039;28;20073;-58
2021/12/16 12:44:10;;;;;;;17.80;4.28;;;;;;;7.44;76.18;101955.97;4985121;28;20068;-55
2021/12/16 12:46:39;;;;;;;16.10;3.40;;;;;;;7.43;76.18;101973.16;4980702;28;20105;-59
2021/12/16 12:49:12;;;;;;;16.25;3.35;;;;;;;7.39;76.46;101973.06;4981319;28;20054;-59
2021/12/16 12:51:43;;;;;;;20.25;3.88;;;;;;;7.37;76.85;101985.91;4981117;28;20136;-58
2021/12/16 12:54:24;;;;;;;11.25;3.67;;;;;;;7.32;76.41;101966.00;4982388;28;20050;-59
2021/12/16 12:56:53;;;;;;;12.40;3.40;;;;;;;7.29;76.93;101982.28;4987370;28;20053;-59
2021/12/16 12:59:20;;;;;;;16.35;3.67;;;;;;;7.19;76.79;101980.28;4985407;28;20054;-57
2021/12/16 13:01:54;;;;;;;17.73;3.45;;;;;;;7.10;77.43;101969.72;4986710;28;20474;-58
2021/12/16 13:04:26;;;;;;;22.67;4.35;;;;;;;7.06;77.44;101965.31;4992113;28;20045;-56
2021/12/16 13:06:58;;;;;;;21.90;4.95;;;;;;;6.97;78.18;101956.53;4981956;28;20046;-51
2021/12/16 13:09:35;;;;;;;16.67;3.63;;;;;;;6.94;78.59;101956.44;4987737;28;20056;-54
2021/12/16 13:12:25;;;;;;;26.75;4.03;;;;;;;6.88;78.58;101956.31;4986156;28;21898;-57
2021/12/16 13:15:02;;;;;;;28.67;4.68;;;;;;;6.88;78.68;101958.00;4987591;28;20085;-60
2021/12/16 13:23:20;;;;;;;23.92;5.28;;;;;;;6.87;78.69;101961.41;4998055;28;21917;-60
2021/12/16 13:23:56;;;;;;;26.27;4.50;;;;;;;6.83;78.88;101957.88;4928211;29;20055;-60
2021/12/16 13:26:36;;;;;;;25.40;4.03;;;;;;;6.79;79.17;101953.47;4979181;28;20049;-57
2021/12/16 13:29:11;;;;;;;23.35;4.38;;;;;;;6.76;78.68;101953.38;4987925;28;20046;-57